Time;durP1;ratioP1;P1;durP2;ratioP2;P2;SDS_P1;SDS_P2;PMS_P1;PMS_P2;Temp;Humidity;BMP_temperature;BMP_pressure;BME280_temperature;BME280_humidity;BME280_pressure;Samples;Min_cycle;Max_cycle;Signal;HPM_P1;HPM_P2
2022/01/18 00:00:55;;;;;;;23.20;5.67;;;;;;;;;;4973383;28;20232;-63
2022/01/18 00:03:21;;;;;;;22.70;5.87;;;;;;;;;;4954770;28;20237;-63
2022/01/18 00:05:49;;;;;;;22.50;6.10;;;;;;;;;;4959645;28;20249;-63
2022/01/18 00:08:16;;;;;;;17.33;5.50;;;;;;;;;;4938446;28;20230;-62
2022/01/18 00:10:42;;;;;;;21.30;5.47;;;;;;;;;;4951587;28;20242;-62
2022/01/18 00:13:23;;;;;;;23.53;5.60;;;;;;;;;;4955565;28;25206;-64
2022/01/18 00:16:09;;;;;;;24.00;5.70;;;;;;;;;;4966709;28;20241;-63
2022/01/18 00:18:36;;;;;;;20.60;5.30;;;;;;;;;;4975299;28;20213;-63
2022/01/18 00:23:34;;;;;;;17.73;5.37;;;;;;;;;;4990643;28;20597;-64
2022/01/18 00:26:00;;;;;;;20.80;5.80;;;;;;;;;;4973020;28;21241;-64
2022/01/18 00:28:28;;;;;;;22.73;5.97;;;;;;;;;;4981621;28;20370;-64
2022/01/18 00:31:30;;;;;;;16.73;5.43;;;;;;;;;;4977633;28;20265;-64
2022/01/18 00:34:01;;;;;;;28.40;5.83;;;;;;;;;;4961417;28;20224;-64
2022/01/18 00:37:35;;;;;;;20.07;5.67;;;;;;;;;;4974672;28;20722;-63
2022/01/18 00:39:22;;;;;;;16.33;4.87;;;;;;;;;;4952991;28;20279;-63
2022/01/18 00:41:48;;;;;;;26.77;5.70;;;;;;;;;;4960325;28;20731;-63
2022/01/18 00:44:14;;;;;;;21.50;5.93;;;;;;;;;;4968358;28;20239;-63
2022/01/18 00:46:40;;;;;;;20.70;5.57;;;;;;;;;;4972019;28;20223;-63
2022/01/18 00:49:06;;;;;;;18.50;5.63;;;;;;;;;;4961364;28;20234;-63
2022/01/18 00:51:38;;;;;;;24.43;5.77;;;;;;;;;;4959064;28;20661;-63
2022/01/18 00:54:05;;;;;;;23.83;5.97;;;;;;;;;;4964007;28;20236;-63
2022/01/18 00:56:32;;;;;;;19.70;5.73;;;;;;;;;;4943107;28;20254;-64
2022/01/18 00:58:58;;;;;;;17.80;5.40;;;;;;;;;;4954535;28;20324;-64
2022/01/18 01:01:26;;;;;;;18.80;5.93;;;;;;;;;;4956859;28;21187;-64
2022/01/18 01:03:55;;;;;;;23.43;5.90;;;;;;;;;;4968895;28;20240;-63
2022/01/18 01:06:22;;;;;;;22.37;6.03;;;;;;;;;;4969068;28;20831;-63
2022/01/18 01:08:48;;;;;;;26.30;5.50;;;;;;;;;;4986450;28;20640;-63
2022/01/18 01:11:14;;;;;;;29.17;5.73;;;;;;;;;;4970287;28;20261;-62
2022/01/18 01:13:43;;;;;;;25.77;6.07;;;;;;;;;;4975443;28;20243;-62
2022/01/18 01:16:59;;;;;;;19.97;5.63;;;;;;;;;;4961762;28;20614;-62
2022/01/18 01:33:44;;;;;;;25.47;6.53;;;;;;;;;;5005751;28;20218;-62
2022/01/18 01:35:41;;;;;;;35.97;7.20;;;;;;;;;;4978499;28;20232;-63
2022/01/18 01:44:25;;;;;;;23.80;6.37;;;;;;;;;;4987231;28;20228;-64
2022/01/18 01:46:25;;;;;;;17.23;6.00;;;;;;;;;;4959487;28;20241;-63
2022/01/18 01:48:54;;;;;;;20.23;6.53;;;;;;;;;;4976822;28;20785;-63
2022/01/18 01:51:21;;;;;;;23.73;6.20;;;;;;;;;;4973903;28;20230;-63
2022/01/18 01:53:47;;;;;;;28.33;7.33;;;;;;;;;;4989140;28;20233;-63
2022/01/18 01:56:13;;;;;;;27.03;6.93;;;;;;;;;;4969274;28;20814;-64
2022/01/18 01:58:39;;;;;;;25.07;7.17;;;;;;;;;;4988673;28;20615;-62
2022/01/18 02:01:05;;;;;;;19.57;7.03;;;;;;;;;;4978222;28;20303;-63
2022/01/18 02:03:31;;;;;;;21.33;6.50;;;;;;;;;;4966089;28;20656;-62
2022/01/18 02:05:57;;;;;;;26.97;6.70;;;;;;;;;;4978208;28;20292;-64
2022/01/18 02:08:23;;;;;;;19.13;6.40;;;;;;;;;;4980835;28;20233;-62
2022/01/18 02:10:49;;;;;;;18.97;6.67;;;;;;;;;;4989408;28;20240;-64
2022/01/18 02:13:15;;;;;;;22.93;6.50;;;;;;;;;;4984109;28;20236;-63
2022/01/18 02:15:58;;;;;;;20.57;7.00;;;;;;;;;;4987344;28;20233;-63
2022/01/18 02:23:53;;;;;;;24.10;6.73;;;;;;;;;;4982177;28;20238;-63
2022/01/18 02:26:19;;;;;;;31.67;7.67;;;;;;;;;;4977541;28;20228;-63
2022/01/18 02:28:45;;;;;;;24.27;7.53;;;;;;;;;;4971551;28;20821;-63
2022/01/18 02:31:11;;;;;;;24.67;8.60;;;;;;;;;;4985377;28;20248;-63
2022/01/18 02:33:37;;;;;;;23.33;7.40;;;;;;;;;;4978268;28;20367;-63
2022/01/18 02:36:04;;;;;;;25.93;7.33;;;;;;;;;;4983684;28;20383;-62
2022/01/18 02:38:30;;;;;;;29.33;7.73;;;;;;;;;;4978327;28;20516;-63
2022/01/18 02:40:57;;;;;;;23.23;7.67;;;;;;;;;;4976626;28;20694;-64
2022/01/18 02:46:08;;;;;;;27.57;7.50;;;;;;;;;;4967883;28;20251;-62
2022/01/18 02:48:34;;;;;;;21.40;7.33;;;;;;;;;;4977811;28;20234;-63
2022/01/18 02:51:00;;;;;;;24.03;7.30;;;;;;;;;;4968735;28;20986;-63
2022/01/18 02:53:26;;;;;;;24.50;8.23;;;;;;;;;;4984335;28;20251;-63
2022/01/18 02:55:52;;;;;;;29.80;8.17;;;;;;;;;;4961570;28;20242;-63
2022/01/18 02:58:27;;;;;;;22.23;8.13;;;;;;;;;;4979726;28;20265;-63
2022/01/18 03:03:35;;;;;;;32.70;7.90;;;;;;;;;;4958432;28;20230;-63
2022/01/18 03:06:01;;;;;;;27.60;7.70;;;;;;;;;;4992104;28;20244;-63
2022/01/18 03:08:27;;;;;;;30.07;8.53;;;;;;;;;;4969223;28;20234;-63
2022/01/18 03:10:53;;;;;;;24.97;7.37;;;;;;;;;;4966109;28;20238;-63
2022/01/18 03:13:19;;;;;;;27.40;7.87;;;;;;;;;;4980587;28;20251;-65
2022/01/18 03:15:45;;;;;;;27.13;8.07;;;;;;;;;;4975391;28;20319;-63
2022/01/18 03:18:11;;;;;;;24.73;7.90;;;;;;;;;;4984769;28;20241;-64
2022/01/18 03:20:38;;;;;;;35.87;9.30;;;;;;;;;;4992201;28;20679;-64
2022/01/18 03:23:09;;;;;;;23.23;8.60;;;;;;;;;;4982092;28;22308;-63
2022/01/18 03:28:04;;;;;;;30.10;8.83;;;;;;;;;;4985889;28;20237;-63
2022/01/18 03:30:31;;;;;;;24.30;8.13;;;;;;;;;;4971777;28;20246;-63
2022/01/18 03:32:57;;;;;;;22.43;8.40;;;;;;;;;;4969879;28;20235;-63
2022/01/18 03:35:23;;;;;;;27.87;8.33;;;;;;;;;;4979582;28;20241;-62
2022/01/18 03:37:49;;;;;;;30.27;8.83;;;;;;;;;;4968799;28;20233;-62
2022/01/18 03:40:15;;;;;;;28.57;8.73;;;;;;;;;;4981550;28;20229;-63
2022/01/18 03:42:43;;;;;;;29.33;9.50;;;;;;;;;;4982930;28;20710;-63
2022/01/18 03:45:13;;;;;;;29.20;8.70;;;;;;;;;;4965793;28;20819;-63
2022/01/18 03:47:39;;;;;;;33.60;8.80;;;;;;;;;;4967527;28;20232;-64
2022/01/18 03:50:05;;;;;;;26.13;9.13;;;;;;;;;;4971488;28;20637;-63
2022/01/18 03:52:31;;;;;;;29.27;9.77;;;;;;;;;;4958571;28;20226;-63
2022/01/18 03:54:57;;;;;;;30.43;8.80;;;;;;;;;;4966980;28;20366;-63
2022/01/18 03:57:23;;;;;;;33.77;9.73;;;;;;;;;;4958333;28;20232;-63
2022/01/18 03:59:49;;;;;;;27.77;8.57;;;;;;;;;;4970059;28;20244;-63
2022/01/18 04:02:15;;;;;;;29.27;8.73;;;;;;;;;;4965869;28;20235;-63
2022/01/18 04:04:41;;;;;;;23.37;8.43;;;;;;;;;;4961145;28;20257;-64
2022/01/18 04:07:07;;;;;;;36.07;9.23;;;;;;;;;;4943970;28;20230;-63
2022/01/18 04:09:33;;;;;;;31.00;9.20;;;;;;;;;;4971537;28;20747;-63
2022/01/18 04:11:59;;;;;;;31.20;9.10;;;;;;;;;;4960604;28;20238;-62
2022/01/18 04:14:25;;;;;;;27.37;9.33;;;;;;;;;;4927090;28;20229;-63
2022/01/18 04:17:12;;;;;;;24.20;8.80;;;;;;;;;;4955775;28;20285;-62
2022/01/18 04:28:01;;;;;;;30.03;8.90;;;;;;;;;;4964558;28;20356;-62
2022/01/18 04:30:27;;;;;;;31.93;9.03;;;;;;;;;;4976458;28;20276;-63
2022/01/18 04:32:52;;;;;;;23.67;8.57;;;;;;;;;;4977069;28;20259;-62
2022/01/18 04:35:18;;;;;;;27.07;8.87;;;;;;;;;;4980943;28;20240;-64
2022/01/18 04:37:44;;;;;;;24.23;8.73;;;;;;;;;;4958308;28;20244;-63
2022/01/18 04:40:14;;;;;;;28.77;8.23;;;;;;;;;;4951244;28;20275;-63
2022/01/18 04:50:50;;;;;;;31.60;9.13;;;;;;;;;;4965735;28;21287;-63
2022/01/18 04:53:15;;;;;;;27.90;9.07;;;;;;;;;;4974208;28;20805;-63
2022/01/18 04:55:41;;;;;;;31.33;8.77;;;;;;;;;;4951652;28;20225;-65
2022/01/18 04:58:07;;;;;;;29.33;8.40;;;;;;;;;;4952862;28;20254;-63
2022/01/18 05:00:33;;;;;;;33.33;9.10;;;;;;;;;;4975189;28;20235;-64
2022/01/18 05:02:59;;;;;;;31.07;8.60;;;;;;;;;;4966700;28;20233;-64
2022/01/18 05:05:28;;;;;;;27.97;8.43;;;;;;;;;;4974814;28;20233;-64
2022/01/18 05:07:54;;;;;;;35.50;9.40;;;;;;;;;;4969967;28;20741;-63
2022/01/18 05:10:22;;;;;;;30.63;8.67;;;;;;;;;;4973724;28;20966;-64
2022/01/18 05:12:51;;;;;;;31.83;9.60;;;;;;;;;;4975292;28;20238;-64
2022/01/18 05:15:43;;;;;;;25.37;9.40;;;;;;;;;;4974224;28;20238;-64
2022/01/18 05:20:55;;;;;;;33.70;10.17;;;;;;;;;;4968520;28;20644;-63
2022/01/18 05:23:21;;;;;;;27.27;9.23;;;;;;;;;;4958501;28;20233;-64
2022/01/18 05:25:47;;;;;;;21.37;8.17;;;;;;;;;;4973578;28;20272;-64
2022/01/18 05:28:13;;;;;;;32.70;9.87;;;;;;;;;;4985172;28;20240;-64
2022/01/18 05:30:39;;;;;;;26.43;9.00;;;;;;;;;;4981689;28;20300;-63
2022/01/18 05:33:06;;;;;;;30.67;9.03;;;;;;;;;;4989679;28;20446;-63
2022/01/18 05:35:32;;;;;;;37.37;10.27;;;;;;;;;;4961568;28;20868;-64
2022/01/18 05:37:58;;;;;;;31.73;10.20;;;;;;;;;;4965152;28;20233;-64
2022/01/18 05:40:24;;;;;;;31.67;9.73;;;;;;;;;;4991734;28;20244;-63
2022/01/18 05:42:50;;;;;;;24.57;9.67;;;;;;;;;;4980144;28;20605;-62
2022/01/18 05:45:16;;;;;;;32.90;9.83;;;;;;;;;;4985440;28;20375;-64
2022/01/18 05:47:42;;;;;;;29.73;10.17;;;;;;;;;;4978502;28;20261;-63
2022/01/18 05:50:09;;;;;;;32.90;10.13;;;;;;;;;;4965644;28;20241;-63
2022/01/18 05:52:35;;;;;;;29.17;9.80;;;;;;;;;;4951440;28;20246;-63
2022/01/18 05:55:01;;;;;;;39.67;9.93;;;;;;;;;;4971177;28;20230;-63
2022/01/18 05:57:27;;;;;;;31.47;9.77;;;;;;;;;;4978804;28;20496;-63
2022/01/18 06:00:00;;;;;;;22.80;9.20;;;;;;;;;;4965239;28;20249;-63
2022/01/18 06:02:42;;;;;;;28.77;8.83;;;;;;;;;;4984201;28;20256;-63
2022/01/18 06:07:54;;;;;;;31.37;9.60;;;;;;;;;;4994764;28;20768;-63
2022/01/18 06:10:20;;;;;;;37.70;9.83;;;;;;;;;;4984926;28;20387;-63
2022/01/18 06:12:46;;;;;;;23.43;9.00;;;;;;;;;;4991311;28;20644;-64
2022/01/18 06:15:12;;;;;;;28.97;9.77;;;;;;;;;;4965148;28;21518;-62
2022/01/18 06:17:41;;;;;;;30.37;9.80;;;;;;;;;;4968131;28;20240;-62
2022/01/18 06:20:07;;;;;;;24.37;10.03;;;;;;;;;;4994165;28;20498;-62
2022/01/18 06:22:33;;;;;;;24.57;10.17;;;;;;;;;;4990361;28;20247;-62
2022/01/18 06:24:59;;;;;;;29.43;11.57;;;;;;;;;;4982878;28;20272;-62
2022/01/18 06:27:25;;;;;;;30.33;11.10;;;;;;;;;;4988542;28;20283;-62
2022/01/18 06:29:52;;;;;;;37.13;12.87;;;;;;;;;;5010062;28;20710;-62
2022/01/18 06:32:18;;;;;;;32.43;13.27;;;;;;;;;;4984361;28;20319;-62
2022/01/18 06:34:44;;;;;;;33.70;14.10;;;;;;;;;;4985322;28;20229;-61
2022/01/18 06:37:10;;;;;;;35.53;14.43;;;;;;;;;;4985156;28;20325;-61
2022/01/18 06:39:36;;;;;;;35.27;14.57;;;;;;;;;;4979045;28;20277;-62
2022/01/18 06:42:02;;;;;;;33.70;15.07;;;;;;;;;;4977353;28;20244;-61
2022/01/18 06:44:28;;;;;;;31.10;14.90;;;;;;;;;;4973561;28;20324;-63
2022/01/18 06:46:54;;;;;;;31.57;14.27;;;;;;;;;;4986154;28;20509;-63
2022/01/18 06:49:20;;;;;;;32.80;14.93;;;;;;;;;;4973523;28;20233;-62
2022/01/18 06:51:45;;;;;;;37.37;14.63;;;;;;;;;;4979304;28;20633;-62
2022/01/18 06:54:15;;;;;;;37.70;14.80;;;;;;;;;;4975053;28;20237;-61
2022/01/18 06:56:48;;;;;;;39.30;13.93;;;;;;;;;;4976631;28;20408;-60
2022/01/18 06:59:14;;;;;;;29.67;13.03;;;;;;;;;;4977286;28;20305;-62
2022/01/18 07:01:40;;;;;;;30.63;11.73;;;;;;;;;;4979467;28;20268;-62
2022/01/18 07:04:06;;;;;;;31.77;11.30;;;;;;;;;;4987222;28;20323;-61
2022/01/18 07:06:32;;;;;;;28.17;11.57;;;;;;;;;;4970339;28;20225;-64
2022/01/18 07:08:59;;;;;;;37.83;12.47;;;;;;;;;;4997531;28;20224;-62
2022/01/18 07:11:25;;;;;;;34.00;12.10;;;;;;;;;;4987795;28;20280;-63
2022/01/18 07:13:51;;;;;;;30.17;12.60;;;;;;;;;;4991922;28;21085;-63
2022/01/18 07:16:16;;;;;;;35.13;12.83;;;;;;;;;;4989296;28;20722;-63
2022/01/18 07:18:42;;;;;;;34.93;11.80;;;;;;;;;;4990663;28;22326;-63
2022/01/18 07:21:09;;;;;;;27.57;12.27;;;;;;;;;;4998363;28;20953;-63
2022/01/18 07:23:35;;;;;;;33.20;12.50;;;;;;;;;;4993900;28;20233;-62
2022/01/18 07:26:01;;;;;;;29.93;12.70;;;;;;;;;;4992297;28;20261;-63
2022/01/18 07:28:27;;;;;;;33.13;12.50;;;;;;;;;;4988065;28;20235;-63
2022/01/18 07:30:53;;;;;;;34.73;12.50;;;;;;;;;;4994635;28;20327;-64
2022/01/18 07:33:19;;;;;;;33.23;12.90;;;;;;;;;;4988128;28;20668;-64
2022/01/18 07:35:45;;;;;;;32.93;13.13;;;;;;;;;;4991723;28;20236;-62
2022/01/18 07:38:16;;;;;;;30.83;13.93;;;;;;;;;;4998980;28;20871;-64
2022/01/18 07:40:43;;;;;;;33.53;12.83;;;;;;;;;;4982264;28;20764;-62
2022/01/18 07:43:11;;;;;;;33.63;12.70;;;;;;;;;;5010662;28;20400;-64
2022/01/18 07:45:37;;;;;;;26.97;11.73;;;;;;;;;;4983853;28;20333;-63
2022/01/18 07:48:03;;;;;;;31.73;13.60;;;;;;;;;;4980627;28;20267;-63
2022/01/18 07:50:29;;;;;;;25.30;12.97;;;;;;;;;;4991959;28;20687;-64
2022/01/18 07:52:56;;;;;;;37.40;14.00;;;;;;;;;;4982250;28;20349;-64
2022/01/18 07:55:21;;;;;;;33.30;13.13;;;;;;;;;;4978610;28;20336;-63
2022/01/18 07:57:47;;;;;;;28.53;12.37;;;;;;;;;;4993859;28;20323;-63
2022/01/18 08:00:14;;;;;;;29.67;12.17;;;;;;;;;;4980196;28;20315;-63
2022/01/18 08:02:41;;;;;;;29.10;12.10;;;;;;;;;;4990980;28;20824;-64
2022/01/18 08:05:07;;;;;;;30.23;12.20;;;;;;;;;;4960759;28;20333;-64
2022/01/18 08:07:33;;;;;;;33.73;14.00;;;;;;;;;;4955984;28;20231;-63
2022/01/18 08:09:59;;;;;;;33.27;12.57;;;;;;;;;;4965334;28;20591;-64
2022/01/18 08:12:25;;;;;;;31.07;11.87;;;;;;;;;;4974178;28;20241;-63
2022/01/18 08:14:54;;;;;;;34.10;12.80;;;;;;;;;;4971744;28;20268;-63
2022/01/18 08:17:20;;;;;;;33.77;12.57;;;;;;;;;;4960698;28;20238;-63
2022/01/18 08:19:46;;;;;;;27.23;12.37;;;;;;;;;;4960845;28;20237;-63
2022/01/18 08:22:13;;;;;;;28.53;12.03;;;;;;;;;;4976425;28;20676;-63
2022/01/18 08:24:39;;;;;;;28.90;11.83;;;;;;;;;;4981768;28;20630;-63
2022/01/18 08:27:05;;;;;;;29.63;12.00;;;;;;;;;;4979586;28;20237;-63
2022/01/18 08:29:31;;;;;;;26.10;12.40;;;;;;;;;;4972743;28;20316;-62
2022/01/18 08:31:57;;;;;;;26.60;12.27;;;;;;;;;;4973173;28;20602;-62
2022/01/18 08:34:23;;;;;;;32.13;11.80;;;;;;;;;;4967889;28;21174;-63
2022/01/18 08:36:51;;;;;;;28.90;11.17;;;;;;;;;;4956717;28;20252;-63
2022/01/18 08:39:16;;;;;;;26.77;12.23;;;;;;;;;;4949455;28;20318;-63
2022/01/18 08:41:42;;;;;;;33.47;12.93;;;;;;;;;;4961576;28;20311;-62
2022/01/18 08:44:08;;;;;;;29.20;11.40;;;;;;;;;;4978671;28;20347;-64
2022/01/18 08:46:34;;;;;;;29.17;12.03;;;;;;;;;;4982412;28;20240;-65
2022/01/18 08:49:00;;;;;;;24.10;11.47;;;;;;;;;;4971099;28;20221;-63
2022/01/18 08:51:26;;;;;;;27.77;12.50;;;;;;;;;;4977524;28;20260;-64
2022/01/18 08:53:52;;;;;;;24.53;11.47;;;;;;;;;;4988922;28;20232;-65
2022/01/18 08:56:18;;;;;;;25.80;11.07;;;;;;;;;;4986510;28;20233;-62
2022/01/18 08:58:44;;;;;;;33.40;11.43;;;;;;;;;;4980321;28;20237;-64
2022/01/18 09:01:10;;;;;;;26.63;10.90;;;;;;;;;;4986282;28;20702;-62
2022/01/18 09:03:37;;;;;;;31.90;11.73;;;;;;;;;;4981333;28;20247;-62
2022/01/18 09:06:04;;;;;;;24.60;11.63;;;;;;;;;;4984341;28;20946;-62
2022/01/18 09:08:30;;;;;;;25.40;13.07;;;;;;;;;;4978391;28;20256;-64
2022/01/18 09:10:56;;;;;;;31.10;13.60;;;;;;;;;;4987218;28;20405;-63
2022/01/18 09:13:22;;;;;;;22.77;12.67;;;;;;;;;;4987359;28;20809;-63
2022/01/18 09:15:48;;;;;;;27.93;11.70;;;;;;;;;;4970006;28;20967;-63
2022/01/18 09:18:14;;;;;;;28.20;12.60;;;;;;;;;;4963024;28;20218;-63
2022/01/18 09:20:40;;;;;;;24.83;12.13;;;;;;;;;;4980968;28;20711;-63
2022/01/18 09:23:06;;;;;;;23.70;11.03;;;;;;;;;;4981691;28;20237;-62
2022/01/18 09:25:33;;;;;;;27.53;11.80;;;;;;;;;;4975755;28;20304;-63
2022/01/18 09:27:59;;;;;;;23.37;11.00;;;;;;;;;;4984872;28;20345;-62
2022/01/18 09:30:26;;;;;;;26.23;11.37;;;;;;;;;;4978890;28;20243;-62
2022/01/18 09:32:52;;;;;;;20.23;10.20;;;;;;;;;;4980389;28;20278;-64
2022/01/18 09:35:18;;;;;;;28.73;10.60;;;;;;;;;;4970681;28;20233;-63
2022/01/18 09:37:44;;;;;;;22.67;11.40;;;;;;;;;;4974409;28;20234;-63
2022/01/18 09:40:10;;;;;;;20.57;10.03;;;;;;;;;;4972876;28;20248;-63
2022/01/18 09:42:39;;;;;;;22.50;10.10;;;;;;;;;;4961570;28;20280;-63
2022/01/18 09:45:06;;;;;;;21.90;10.30;;;;;;;;;;4960015;28;20246;-63
2022/01/18 09:47:32;;;;;;;23.13;10.20;;;;;;;;;;4961417;28;20703;-64
2022/01/18 09:49:58;;;;;;;32.33;10.30;;;;;;;;;;4960444;28;20371;-63
2022/01/18 09:52:24;;;;;;;20.37;9.43;;;;;;;;;;4962417;28;20829;-63
2022/01/18 09:54:50;;;;;;;22.23;8.87;;;;;;;;;;4971501;28;20367;-64
2022/01/18 09:57:16;;;;;;;17.20;9.57;;;;;;;;;;4963115;28;20229;-62
2022/01/18 09:59:42;;;;;;;26.97;10.60;;;;;;;;;;4974048;28;20225;-63
2022/01/18 10:02:10;;;;;;;19.90;9.23;;;;;;;;;;4968157;28;20233;-64
2022/01/18 10:04:57;;;;;;;22.50;8.70;;;;;;;;;;4967022;28;20241;-64
2022/01/18 10:07:33;;;;;;;22.87;9.53;;;;;;;;;;4973984;28;20228;-62
2022/01/18 10:09:59;;;;;;;22.70;8.50;;;;;;;;;;4978306;28;20233;-64
2022/01/18 10:12:25;;;;;;;18.90;8.80;;;;;;;;;;4969692;28;20256;-62
2022/01/18 10:14:53;;;;;;;21.63;8.80;;;;;;;;;;4975844;28;20936;-62
2022/01/18 10:17:28;;;;;;;21.83;8.90;;;;;;;;;;4974446;28;20237;-62
2022/01/18 10:19:54;;;;;;;17.13;9.00;;;;;;;;;;4965670;28;20260;-63
2022/01/18 10:22:27;;;;;;;19.43;8.63;;;;;;;;;;4978211;28;20724;-64
2022/01/18 10:24:53;;;;;;;22.80;9.23;;;;;;;;;;4985438;28;20251;-63
2022/01/18 10:27:19;;;;;;;19.30;8.90;;;;;;;;;;4979439;28;20726;-63
2022/01/18 10:29:46;;;;;;;25.57;10.23;;;;;;;;;;4987828;28;20233;-63
2022/01/18 10:32:20;;;;;;;22.53;9.43;;;;;;;;;;4987306;28;20270;-62
2022/01/18 10:37:19;;;;;;;22.17;9.27;;;;;;;;;;4986846;28;20237;-63
2022/01/18 10:39:50;;;;;;;21.10;9.53;;;;;;;;;;4994203;28;20233;-62
2022/01/18 10:42:29;;;;;;;20.60;8.80;;;;;;;;;;4994414;28;20226;-62
2022/01/18 10:45:03;;;;;;;20.17;8.77;;;;;;;;;;4986297;28;20330;-64
2022/01/18 10:47:29;;;;;;;20.57;9.27;;;;;;;;;;4987407;28;20778;-62
2022/01/18 10:49:55;;;;;;;21.97;8.57;;;;;;;;;;4990729;28;26081;-62
2022/01/18 10:52:28;;;;;;;20.47;9.60;;;;;;;;;;4970919;28;20711;-63
2022/01/18 10:54:55;;;;;;;25.43;8.47;;;;;;;;;;4975211;28;20523;-64
2022/01/18 10:57:28;;;;;;;19.73;8.77;;;;;;;;;;4992904;28;20247;-62
2022/01/18 10:59:57;;;;;;;19.30;8.30;;;;;;;;;;4983260;28;20508;-61
2022/01/18 11:02:24;;;;;;;18.57;8.70;;;;;;;;;;4976901;28;20241;-62
2022/01/18 11:04:50;;;;;;;20.17;8.73;;;;;;;;;;4987812;28;20651;-61
2022/01/18 11:07:17;;;;;;;19.17;8.43;;;;;;;;;;4974864;28;20855;-63
2022/01/18 11:09:43;;;;;;;21.43;8.57;;;;;;;;;;4970401;28;20221;-62
2022/01/18 11:12:10;;;;;;;21.93;8.87;;;;;;;;;;4988006;28;20741;-63
2022/01/18 11:14:38;;;;;;;19.80;9.47;;;;;;;;;;4987044;28;20369;-63
2022/01/18 11:17:04;;;;;;;18.90;9.10;;;;;;;;;;4977778;28;20306;-62
2022/01/18 11:19:33;;;;;;;22.37;9.27;;;;;;;;;;4970156;28;20452;-63
2022/01/18 11:22:00;;;;;;;17.43;8.17;;;;;;;;;;4980675;28;20250;-63
2022/01/18 11:24:28;;;;;;;19.77;8.53;;;;;;;;;;4990771;28;20228;-63
2022/01/18 11:26:54;;;;;;;18.40;8.70;;;;;;;;;;4991036;28;20355;-63
2022/01/18 11:29:21;;;;;;;20.27;8.60;;;;;;;;;;4987605;28;20783;-64
2022/01/18 11:31:49;;;;;;;16.70;7.90;;;;;;;;;;4984111;28;20229;-63
2022/01/18 11:34:30;;;;;;;20.10;8.27;;;;;;;;;;4972584;28;21026;-63
2022/01/18 11:36:58;;;;;;;18.27;8.17;;;;;;;;;;4986184;28;20542;-63
2022/01/18 11:39:24;;;;;;;17.53;8.23;;;;;;;;;;4979644;28;20303;-62
2022/01/18 11:41:50;;;;;;;15.73;7.80;;;;;;;;;;4989986;28;20239;-63
2022/01/18 11:44:16;;;;;;;19.47;7.73;;;;;;;;;;4972665;28;20325;-63
2022/01/18 11:46:50;;;;;;;18.90;7.20;;;;;;;;;;4976553;28;20318;-63
2022/01/18 11:49:21;;;;;;;18.17;8.37;;;;;;;;;;4978537;28;20448;-63
2022/01/18 11:51:54;;;;;;;14.90;7.37;;;;;;;;;;4976373;28;20633;-64
2022/01/18 11:54:20;;;;;;;19.17;8.20;;;;;;;;;;4990599;28;20238;-63
2022/01/18 11:56:46;;;;;;;16.23;6.87;;;;;;;;;;4985942;28;20920;-63
2022/01/18 11:59:19;;;;;;;18.00;7.80;;;;;;;;;;4992416;28;20982;-63
2022/01/18 12:01:46;;;;;;;15.73;6.90;;;;;;;;;;4995972;28;20240;-63
2022/01/18 12:04:12;;;;;;;18.67;7.47;;;;;;;;;;4981208;28;20269;-63
2022/01/18 12:06:45;;;;;;;17.80;7.17;;;;;;;;;;4984854;28;20248;-62
2022/01/18 12:09:29;;;;;;;15.67;7.17;;;;;;;;;;4977291;28;20240;-63
2022/01/18 12:11:56;;;;;;;15.27;7.20;;;;;;;;;;4974449;28;20240;-62
2022/01/18 12:14:32;;;;;;;15.23;7.23;;;;;;;;;;4974099;28;20245;-62
2022/01/18 12:16:58;;;;;;;17.60;6.70;;;;;;;;;;4989232;28;20228;-62
2022/01/18 12:19:41;;;;;;;19.80;7.47;;;;;;;;;;4978417;28;20245;-63
2022/01/18 12:22:07;;;;;;;17.10;7.97;;;;;;;;;;4980464;28;20236;-65
2022/01/18 12:24:33;;;;;;;15.63;7.03;;;;;;;;;;4960629;28;20236;-61
2022/01/18 12:27:03;;;;;;;16.70;7.63;;;;;;;;;;4973849;28;20291;-61
2022/01/18 12:34:31;;;;;;;15.87;8.13;;;;;;;;;;4991083;28;20240;-61
2022/01/18 12:37:06;;;;;;;12.90;7.80;;;;;;;;;;4988806;28;20268;-61
2022/01/18 12:39:54;;;;;;;14.13;7.47;;;;;;;;;;4979941;28;20709;-62
2022/01/18 12:44:20;;;;;;;15.80;7.67;;;;;;;;;;5000209;28;20235;-62
2022/01/18 12:45:12;;;;;;;18.10;8.27;;;;;;;;;;4986233;28;20483;-62
2022/01/18 12:47:41;;;;;;;15.37;7.77;;;;;;;;;;4993578;28;20293;-63
2022/01/18 12:50:08;;;;;;;18.30;7.83;;;;;;;;;;4990160;28;20312;-63
2022/01/18 12:53:00;;;;;;;19.83;7.10;;;;;;;;;;4987997;28;20280;-63
2022/01/18 12:55:26;;;;;;;15.43;7.50;;;;;;;;;;4945585;28;20244;-63
2022/01/18 12:58:01;;;;;;;16.07;8.07;;;;;;;;;;4991414;28;20225;-64
2022/01/18 13:00:27;;;;;;;13.03;7.37;;;;;;;;;;4994520;28;20253;-67
2022/01/18 13:02:58;;;;;;;18.07;8.27;;;;;;;;;;5003143;28;20555;-63
2022/01/18 13:05:32;;;;;;;17.67;8.07;;;;;;;;;;4999170;28;20969;-62
2022/01/18 13:07:58;;;;;;;20.13;7.73;;;;;;;;;;4973952;28;20237;-62
2022/01/18 13:10:33;;;;;;;16.07;6.97;;;;;;;;;;5006077;28;20558;-62
2022/01/18 13:13:00;;;;;;;16.07;6.87;;;;;;;;;;4994257;28;20240;-63
2022/01/18 13:15:39;;;;;;;13.50;6.67;;;;;;;;;;4994745;28;20414;-62
2022/01/18 13:23:55;;;;;;;14.93;6.73;;;;;;;;;;4993023;28;20255;-63
2022/01/18 13:26:32;;;;;;;18.40;6.97;;;;;;;;;;4998821;28;20241;-63
2022/01/18 13:29:09;;;;;;;14.90;6.37;;;;;;;;;;4995059;28;20276;-63
2022/01/18 13:31:35;;;;;;;16.33;6.23;;;;;;;;;;4985752;28;20236;-63
2022/01/18 13:34:01;;;;;;;16.20;7.03;;;;;;;;;;4997424;28;20233;-63
2022/01/18 13:36:29;;;;;;;15.00;6.97;;;;;;;;;;4995396;28;20291;-62
2022/01/18 13:38:55;;;;;;;13.47;6.80;;;;;;;;;;4997120;28;20235;-63
2022/01/18 13:41:24;;;;;;;16.40;7.03;;;;;;;;;;4988606;28;20237;-63
2022/01/18 13:43:50;;;;;;;13.47;6.67;;;;;;;;;;4985721;28;20365;-63
2022/01/18 13:46:25;;;;;;;15.10;7.07;;;;;;;;;;4998035;28;20272;-63
2022/01/18 13:49:03;;;;;;;15.67;7.10;;;;;;;;;;5005570;28;20683;-64
2022/01/18 13:51:29;;;;;;;11.10;6.60;;;;;;;;;;4995977;28;20224;-65
2022/01/18 13:53:59;;;;;;;17.93;9.27;;;;;;;;;;5012010;28;21023;-64
2022/01/18 13:56:26;;;;;;;18.87;7.17;;;;;;;;;;4976817;28;20240;-62
2022/01/18 13:58:59;;;;;;;14.40;7.47;;;;;;;;;;5003937;28;20319;-62
2022/01/18 14:01:26;;;;;;;13.30;7.17;;;;;;;;;;5004178;28;20240;-63
2022/01/18 14:03:56;;;;;;;13.63;7.07;;;;;;;;;;4994390;28;20313;-62
2022/01/18 14:06:32;;;;;;;14.57;7.63;;;;;;;;;;4993770;28;20762;-62
2022/01/18 14:08:58;;;;;;;13.03;7.00;;;;;;;;;;4997044;28;21356;-62
2022/01/18 14:11:25;;;;;;;16.30;7.60;;;;;;;;;;4998885;28;20228;-63
2022/01/18 14:13:51;;;;;;;14.90;6.63;;;;;;;;;;4990376;28;20577;-63
2022/01/18 14:16:24;;;;;;;20.47;7.43;;;;;;;;;;4984868;28;20237;-63
2022/01/18 14:18:53;;;;;;;12.03;6.27;;;;;;;;;;4993194;28;20324;-62
2022/01/18 14:21:28;;;;;;;18.10;6.83;;;;;;;;;;4995255;28;20240;-63
2022/01/18 14:24:11;;;;;;;12.87;7.13;;;;;;;;;;5001915;28;20232;-62
2022/01/18 14:26:37;;;;;;;16.93;7.17;;;;;;;;;;4999317;28;20244;-63
2022/01/18 14:29:03;;;;;;;16.53;6.67;;;;;;;;;;4999527;28;20317;-63
2022/01/18 14:31:29;;;;;;;13.83;6.77;;;;;;;;;;4995758;28;20234;-62
2022/01/18 14:33:55;;;;;;;12.60;6.53;;;;;;;;;;5006367;28;20416;-62
2022/01/18 14:36:21;;;;;;;12.67;6.27;;;;;;;;;;5000562;28;20225;-62
2022/01/18 14:38:47;;;;;;;14.37;6.90;;;;;;;;;;5000330;28;20322;-64
2022/01/18 14:41:19;;;;;;;13.00;6.10;;;;;;;;;;4991191;28;20229;-64
2022/01/18 14:43:45;;;;;;;14.67;6.67;;;;;;;;;;4992211;28;20592;-62
2022/01/18 14:46:21;;;;;;;14.00;7.07;;;;;;;;;;4993033;28;20241;-63
2022/01/18 14:48:47;;;;;;;13.43;7.07;;;;;;;;;;4981329;28;20768;-61
2022/01/18 14:51:13;;;;;;;14.47;7.53;;;;;;;;;;4996695;28;20263;-61
2022/01/18 14:53:39;;;;;;;18.50;8.63;;;;;;;;;;4989552;28;20228;-61
2022/01/18 14:56:06;;;;;;;20.97;8.40;;;;;;;;;;4985066;28;20312;-61
2022/01/18 14:58:32;;;;;;;19.27;7.77;;;;;;;;;;4997793;28;20233;-62
2022/01/18 15:00:59;;;;;;;16.73;8.03;;;;;;;;;;4986168;28;20245;-62
2022/01/18 15:03:25;;;;;;;21.97;8.30;;;;;;;;;;4998330;28;20312;-61
2022/01/18 15:05:51;;;;;;;17.03;8.57;;;;;;;;;;5005670;28;20248;-62
2022/01/18 15:08:19;;;;;;;20.70;9.60;;;;;;;;;;4981405;28;20256;-61
2022/01/18 15:10:45;;;;;;;18.83;9.17;;;;;;;;;;5002641;28;20239;-61
2022/01/18 15:13:11;;;;;;;15.43;8.40;;;;;;;;;;5001982;28;20383;-62
2022/01/18 15:15:37;;;;;;;17.63;8.20;;;;;;;;;;5009567;28;20219;-61
2022/01/18 15:18:03;;;;;;;20.37;8.33;;;;;;;;;;4958219;28;20252;-62
2022/01/18 15:20:29;;;;;;;19.63;8.07;;;;;;;;;;4978823;28;20621;-61
2022/01/18 15:22:55;;;;;;;16.37;7.83;;;;;;;;;;4997695;28;20221;-61
2022/01/18 15:25:21;;;;;;;14.77;7.60;;;;;;;;;;5003180;28;20229;-62
2022/01/18 15:27:48;;;;;;;13.77;7.63;;;;;;;;;;4985462;28;20839;-62
2022/01/18 15:30:14;;;;;;;18.27;8.13;;;;;;;;;;4999784;28;20344;-62
2022/01/18 15:32:41;;;;;;;18.60;9.30;;;;;;;;;;5000033;28;20237;-62
2022/01/18 15:35:07;;;;;;;15.57;7.87;;;;;;;;;;4984384;28;20236;-62
2022/01/18 15:37:33;;;;;;;21.07;9.27;;;;;;;;;;4979986;28;20242;-62
2022/01/18 15:40:03;;;;;;;15.53;7.63;;;;;;;;;;4997203;28;20255;-63
2022/01/18 15:42:30;;;;;;;18.20;8.40;;;;;;;;;;5000716;28;20874;-62